Time;durP1;ratioP1;P1;durP2;ratioP2;P2;SDS_P1;SDS_P2;PMS_P1;PMS_P2;Temp;Humidity;BMP_temperature;BMP_pressure;BME280_temperature;BME280_humidity;BME280_pressure;Samples;Min_cycle;Max_cycle;Signal;HPM_P1;HPM_P2
2022/05/24 00:00:16;;;;;;;3.05;2.80;;;12.90;99.90;;;;;;5002333;28;20108;-78
2022/05/24 00:02:41;;;;;;;3.17;2.88;;;12.90;99.90;;;;;;5002098;28;20411;-77
2022/05/24 00:05:08;;;;;;;9.65;3.67;;;12.90;99.90;;;;;;5002671;28;20343;-78
2022/05/24 00:07:35;;;;;;;8.02;2.70;;;12.90;99.90;;;;;;5002934;28;20073;-77
2022/05/24 00:10:01;;;;;;;6.47;2.67;;;12.90;99.90;;;;;;5002970;28;20049;-78
2022/05/24 00:12:27;;;;;;;3.25;3.05;;;13.00;99.90;;;;;;5003619;28;20069;-77
2022/05/24 00:17:37;;;;;;;4.03;3.60;;;12.90;99.90;;;;;;5006127;28;20568;-77
2022/05/24 00:20:04;;;;;;;3.22;2.92;;;12.90;99.90;;;;;;5006367;28;20133;-77
2022/05/24 00:22:30;;;;;;;3.65;3.35;;;12.90;99.90;;;;;;5005692;28;20104;-77
2022/05/24 00:25:00;;;;;;;4.13;3.30;;;12.90;99.90;;;;;;5006934;28;20042;-77
2022/05/24 00:27:27;;;;;;;4.15;3.50;;;12.90;99.90;;;;;;5006152;28;20057;-77
2022/05/24 00:29:53;;;;;;;2.67;2.33;;;12.80;99.90;;;;;;5004627;28;20100;-77
2022/05/24 00:32:18;;;;;;;3.63;3.20;;;12.80;99.90;;;;;;5005095;28;20061;-77
2022/05/24 00:34:44;;;;;;;3.95;2.90;;;12.80;99.90;;;;;;5006322;28;20496;-77
2022/05/24 00:37:09;;;;;;;3.67;3.38;;;12.80;99.90;;;;;;5005297;28;20396;-77
2022/05/24 00:39:37;;;;;;;4.78;4.28;;;12.80;99.90;;;;;;5006517;28;20390;-77
2022/05/24 00:42:16;;;;;;;3.85;3.08;;;12.70;99.90;;;;;;5005149;28;20446;-78
2022/05/24 00:44:49;;;;;;;7.20;4.32;;;12.70;99.90;;;;;;5005614;28;20489;-77
2022/05/24 00:47:26;;;;;;;3.60;3.30;;;12.70;99.90;;;;;;5004469;28;20126;-77
2022/05/24 00:49:59;;;;;;;5.75;3.45;;;12.70;99.90;;;;;;5006703;28;20077;-77
2022/05/24 00:52:36;;;;;;;3.63;3.33;;;12.70;99.90;;;;;;5006043;28;20084;-77
2022/05/24 00:55:02;;;;;;;5.18;3.72;;;12.70;99.90;;;;;;5004726;28;20045;-77
2022/05/24 00:57:34;;;;;;;5.43;3.97;;;12.70;99.90;;;;;;5006439;28;20033;-77
2022/05/24 01:00:08;;;;;;;4.50;3.37;;;12.70;99.90;;;;;;5005918;28;20033;-77
2022/05/24 01:02:36;;;;;;;3.00;2.70;;;12.70;99.90;;;;;;5004856;28;20054;-77
2022/05/24 01:05:04;;;;;;;6.63;4.05;;;12.70;99.90;;;;;;5035524;23;20550;-79
2022/05/24 01:07:30;;;;;;;4.40;4.00;;;12.70;99.90;;;;;;5024767;28;20495;-79
2022/05/24 01:10:07;;;;;;;5.28;3.97;;;12.70;99.90;;;;;;5026626;28;20179;-78
2022/05/24 01:12:37;;;;;;;3.47;3.25;;;12.70;99.90;;;;;;5007910;28;20053;-80
2022/05/24 01:15:06;;;;;;;4.80;4.13;;;12.80;99.90;;;;;;5024945;28;20041;-81
2022/05/24 01:17:34;;;;;;;4.07;3.75;;;12.80;99.90;;;;;;5026240;28;20029;-81
2022/05/24 01:20:00;;;;;;;7.25;5.43;;;12.80;99.90;;;;;;5026419;28;20047;-80
2022/05/24 01:22:39;;;;;;;9.98;4.40;;;12.80;99.90;;;;;;5024873;28;20124;-80
2022/05/24 01:25:30;;;;;;;4.07;3.70;;;12.80;99.90;;;;;;5007828;28;20096;-80
2022/05/24 01:27:56;;;;;;;5.07;3.97;;;12.80;99.90;;;;;;5023614;28;20243;-80
2022/05/24 01:30:22;;;;;;;6.65;4.72;;;12.80;99.90;;;;;;5024978;28;20045;-80
2022/05/24 01:38:20;;;;;;;5.10;4.43;;;12.90;99.90;;;;;;5025660;28;20049;-81
2022/05/24 01:40:48;;;;;;;5.85;5.30;;;12.90;99.90;;;;;;5024677;28;20033;-81
2022/05/24 01:43:19;;;;;;;5.78;5.22;;;12.90;99.90;;;;;;5025264;28;20037;-81
2022/05/24 01:45:57;;;;;;;7.13;4.80;;;12.90;99.90;;;;;;5023453;28;20037;-80
2022/05/24 01:48:29;;;;;;;10.93;5.57;;;12.90;99.90;;;;;;5024018;28;20125;-81
2022/05/24 01:50:57;;;;;;;9.10;5.97;;;12.90;99.90;;;;;;5024511;28;20103;-81
2022/05/24 01:53:40;;;;;;;6.03;5.43;;;13.00;99.90;;;;;;5025502;28;20049;-81
2022/05/24 01:56:08;;;;;;;6.10;5.03;;;13.00;99.90;;;;;;5007026;28;20095;-81
2022/05/24 01:58:36;;;;;;;6.90;5.10;;;13.00;99.90;;;;;;5022895;28;20041;-80
2022/05/24 02:01:38;;;;;;;7.25;6.55;;;13.00;99.90;;;;;;5023915;28;20088;-81
2022/05/24 02:04:05;;;;;;;9.77;7.63;;;12.90;99.90;;;;;;5025290;28;20127;-81
2022/05/24 02:06:32;;;;;;;10.02;9.02;;;13.00;99.90;;;;;;5024135;28;20037;-81
2022/05/24 02:08:57;;;;;;;8.15;7.35;;;13.00;99.90;;;;;;5024149;28;20296;-81
2022/05/24 02:11:29;;;;;;;8.40;6.85;;;13.00;99.90;;;;;;5024779;28;20553;-81
2022/05/24 02:14:15;;;;;;;15.02;8.77;;;13.00;99.90;;;;;;5022791;28;20041;-81
2022/05/24 02:16:56;;;;;;;11.48;8.00;;;13.00;99.90;;;;;;5023701;28;20391;-81
2022/05/24 02:19:24;;;;;;;10.68;8.98;;;13.00;99.90;;;;;;5024878;28;20120;-81
2022/05/24 02:21:55;;;;;;;11.52;8.55;;;13.00;99.90;;;;;;5025159;28;20056;-81
2022/05/24 02:24:24;;;;;;;14.18;10.68;;;13.00;99.90;;;;;;5023226;28;20049;-81
2022/05/24 02:26:51;;;;;;;14.90;10.48;;;13.10;99.90;;;;;;5024475;28;20399;-80
2022/05/24 02:29:18;;;;;;;21.08;12.10;;;13.10;99.90;;;;;;5023973;28;20392;-81
2022/05/24 02:31:44;;;;;;;14.38;12.27;;;13.10;99.90;;;;;;5024822;28;20152;-81
2022/05/24 02:34:11;;;;;;;12.98;11.50;;;13.10;99.90;;;;;;5023468;28;20399;-81
2022/05/24 02:36:37;;;;;;;17.95;12.07;;;13.10;99.90;;;;;;5024552;28;20038;-81
2022/05/24 02:39:04;;;;;;;15.35;13.07;;;13.10;99.90;;;;;;5024426;28;20049;-81
2022/05/24 02:41:31;;;;;;;15.88;12.48;;;13.10;99.90;;;;;;5023601;28;20038;-81
2022/05/24 02:44:06;;;;;;;16.65;12.48;;;13.10;99.90;;;;;;5022253;28;20053;-80
2022/05/24 02:46:33;;;;;;;13.85;12.38;;;13.10;99.90;;;;;;5024588;28;20044;-81
2022/05/24 02:48:59;;;;;;;15.65;11.23;;;13.10;99.90;;;;;;5006572;28;20057;-81
2022/05/24 02:51:26;;;;;;;15.35;12.55;;;13.10;99.90;;;;;;5024063;28;20064;-81
2022/05/24 02:53:51;;;;;;;17.00;13.02;;;13.10;99.90;;;;;;5024319;28;20037;-81
2022/05/24 02:56:17;;;;;;;17.08;11.93;;;13.10;99.90;;;;;;5023597;28;20558;-81
2022/05/24 02:58:43;;;;;;;18.50;12.45;;;13.20;99.90;;;;;;5022355;28;20060;-81
2022/05/24 03:01:29;;;;;;;15.57;13.75;;;13.20;99.90;;;;;;5022531;28;20072;-81
2022/05/24 03:03:55;;;;;;;15.55;12.45;;;13.20;99.90;;;;;;5023834;28;20057;-80
2022/05/24 03:06:23;;;;;;;12.98;10.98;;;13.20;99.90;;;;;;5023587;28;20056;-81
2022/05/24 03:14:21;;;;;;;13.70;11.45;;;13.10;99.90;;;;;;5020706;28;20115;-81
2022/05/24 03:16:49;;;;;;;14.85;12.20;;;13.10;99.90;;;;;;5024196;28;20045;-81
2022/05/24 03:19:15;;;;;;;13.13;11.27;;;13.10;99.90;;;;;;5023987;28;20048;-80
2022/05/24 03:21:41;;;;;;;15.50;11.23;;;13.10;99.90;;;;;;5023985;28;20037;-80
2022/05/24 03:24:06;;;;;;;13.55;8.93;;;13.10;99.90;;;;;;5023488;28;20042;-81
2022/05/24 03:26:32;;;;;;;11.15;9.63;;;13.10;99.90;;;;;;5022602;28;20045;-80
2022/05/24 03:28:58;;;;;;;11.00;10.00;;;13.10;99.90;;;;;;5023000;28;20550;-81
2022/05/24 03:31:23;;;;;;;11.80;8.50;;;13.00;99.90;;;;;;5022482;28;20128;-80
2022/05/24 03:33:49;;;;;;;18.63;9.50;;;13.10;99.90;;;;;;5022359;28;20438;-80
2022/05/24 03:36:15;;;;;;;11.77;9.07;;;13.10;99.90;;;;;;5023687;28;20175;-81
2022/05/24 03:38:41;;;;;;;10.93;8.30;;;13.10;99.90;;;;;;5024133;28;20046;-81
2022/05/24 03:41:06;;;;;;;12.13;8.00;;;13.10;99.90;;;;;;5023179;28;20038;-81
2022/05/24 03:43:32;;;;;;;12.18;8.73;;;13.10;99.90;;;;;;5022495;28;20041;-81
2022/05/24 03:46:03;;;;;;;10.98;7.90;;;13.10;99.90;;;;;;5022784;28;20049;-81
2022/05/24 03:48:29;;;;;;;10.15;7.35;;;13.10;99.90;;;;;;5005909;28;20033;-81
2022/05/24 03:50:55;;;;;;;9.93;7.35;;;13.10;99.90;;;;;;5014464;28;20029;-81
2022/05/24 03:53:21;;;;;;;9.88;6.03;;;13.10;99.90;;;;;;5021764;28;20057;-81
2022/05/24 03:55:47;;;;;;;12.43;5.97;;;13.10;99.90;;;;;;5023428;28;20037;-81
2022/05/24 03:58:12;;;;;;;9.13;5.13;;;13.00;99.90;;;;;;5022485;28;20049;-81
2022/05/24 04:00:40;;;;;;;8.93;4.80;;;13.00;99.90;;;;;;5022990;28;20037;-81
2022/05/24 04:03:06;;;;;;;7.40;5.22;;;13.00;99.90;;;;;;5021639;28;20057;-80
2022/05/24 04:05:33;;;;;;;6.80;4.65;;;13.00;99.90;;;;;;5023336;28;20045;-81
2022/05/24 04:07:59;;;;;;;14.05;5.28;;;13.00;99.90;;;;;;5023573;28;20069;-80
2022/05/24 04:10:25;;;;;;;5.85;4.45;;;12.90;99.90;;;;;;5022938;28;20033;-81
2022/05/24 04:12:51;;;;;;;6.80;4.53;;;12.90;99.90;;;;;;5022798;28;20431;-80
2022/05/24 04:15:17;;;;;;;7.20;4.95;;;12.90;99.90;;;;;;5021981;28;20045;-81
2022/05/24 04:17:43;;;;;;;10.80;4.80;;;12.90;99.90;;;;;;5023176;28;20183;-81
2022/05/24 04:20:09;;;;;;;5.80;4.47;;;12.90;99.90;;;;;;5022864;28;20050;-81
2022/05/24 04:22:35;;;;;;;6.63;4.10;;;12.90;99.90;;;;;;5022964;28;20041;-81
2022/05/24 04:25:01;;;;;;;5.70;3.60;;;12.90;99.90;;;;;;5022778;28;20041;-81
2022/05/24 04:27:27;;;;;;;6.18;4.35;;;12.80;99.90;;;;;;5023158;28;20088;-81
2022/05/24 04:29:53;;;;;;;5.03;4.63;;;12.80;99.90;;;;;;5022368;28;20072;-80
2022/05/24 04:32:20;;;;;;;4.32;4.03;;;12.80;99.90;;;;;;5022110;28;20042;-81
2022/05/24 04:34:46;;;;;;;5.57;4.93;;;12.80;99.90;;;;;;5005246;28;20037;-81
2022/05/24 04:37:12;;;;;;;10.50;5.03;;;12.80;99.90;;;;;;5021249;28;20488;-81
2022/05/24 04:39:37;;;;;;;5.72;4.95;;;12.80;99.90;;;;;;5021717;28;20511;-81
2022/05/24 04:42:19;;;;;;;7.13;4.80;;;12.80;99.90;;;;;;5022314;28;20045;-81
2022/05/24 04:45:13;;;;;;;5.78;5.03;;;12.80;99.90;;;;;;5022527;28;20041;-81
2022/05/24 04:47:39;;;;;;;11.75;4.50;;;12.80;99.90;;;;;;5019416;28;20129;-80
2022/05/24 04:50:08;;;;;;;7.53;5.72;;;12.80;99.90;;;;;;5021902;28;20496;-80
2022/05/24 04:52:37;;;;;;;6.35;5.68;;;12.80;99.90;;;;;;5022602;28;20624;-81
2022/05/24 04:55:05;;;;;;;7.60;6.78;;;12.80;99.90;;;;;;5021448;28;20391;-81
2022/05/24 04:57:31;;;;;;;9.88;5.65;;;12.80;99.90;;;;;;5023287;28;20164;-81
2022/05/24 04:59:56;;;;;;;6.03;5.55;;;12.80;99.90;;;;;;5020060;28;20450;-81
2022/05/24 05:02:22;;;;;;;11.80;6.03;;;12.90;99.90;;;;;;5022506;28;20187;-83
2022/05/24 05:04:49;;;;;;;9.48;7.43;;;12.90;99.90;;;;;;5023743;28;20132;-81
2022/05/24 05:07:16;;;;;;;6.72;6.03;;;12.80;99.90;;;;;;5025411;28;20420;-81
2022/05/24 05:09:43;;;;;;;7.40;6.80;;;12.80;99.90;;;;;;5025836;28;20049;-81
2022/05/24 05:12:10;;;;;;;8.07;6.80;;;12.90;99.90;;;;;;5025923;28;20306;-81
2022/05/24 05:14:37;;;;;;;11.93;6.97;;;12.80;99.90;;;;;;5023744;28;20192;-81
2022/05/24 05:17:04;;;;;;;8.40;7.50;;;12.80;99.90;;;;;;5025806;28;20045;-80
2022/05/24 05:19:30;;;;;;;9.77;6.65;;;12.80;99.90;;;;;;5024948;28;20042;-81
2022/05/24 05:21:56;;;;;;;9.18;7.30;;;12.80;99.90;;;;;;5024786;28;20041;-81
2022/05/24 05:24:22;;;;;;;8.13;6.38;;;12.80;99.90;;;;;;5007459;28;20531;-81
2022/05/24 05:26:48;;;;;;;9.98;7.38;;;12.80;99.90;;;;;;5024982;28;20084;-81
2022/05/24 05:29:14;;;;;;;7.80;6.93;;;12.90;99.90;;;;;;5023048;28;20072;-81
2022/05/24 05:31:39;;;;;;;11.35;7.60;;;12.90;99.90;;;;;;5025708;28;20069;-81
2022/05/24 05:34:05;;;;;;;11.77;8.52;;;12.90;99.90;;;;;;5024883;28;20464;-82
2022/05/24 05:36:32;;;;;;;11.02;8.40;;;12.90;99.90;;;;;;5023953;28;20052;-81
2022/05/24 05:38:58;;;;;;;11.60;8.13;;;13.00;99.90;;;;;;5024247;28;20060;-81
2022/05/24 05:41:29;;;;;;;8.93;8.07;;;13.00;99.90;;;;;;5025692;28;20650;-81
2022/05/24 05:43:55;;;;;;;14.98;9.25;;;13.00;99.90;;;;;;5024476;28;20077;-81
2022/05/24 05:46:21;;;;;;;9.35;8.45;;;13.10;99.90;;;;;;5020764;28;20056;-81
2022/05/24 05:48:47;;;;;;;16.30;10.23;;;13.10;99.90;;;;;;5020567;28;20038;-80
2022/05/24 05:51:15;;;;;;;17.13;8.93;;;13.10;99.90;;;;;;5023306;28;20034;-82
2022/05/24 05:53:41;;;;;;;12.90;9.55;;;13.10;99.90;;;;;;5015168;28;20084;-81
2022/05/24 05:56:13;;;;;;;9.05;7.38;;;13.20;99.90;;;;;;5014714;28;20439;-82
2022/05/24 05:58:38;;;;;;;;;;;13.20;99.90;;;;;;5014939;28;20033;-80
2022/05/24 06:01:04;;;;;;;7.43;6.55;;;13.20;99.90;;;;;;5024732;28;20347;-81
2022/05/24 06:03:30;;;;;;;10.30;6.93;;;13.20;99.90;;;;;;5022018;28;20125;-82
2022/05/24 06:06:00;;;;;;;9.80;8.05;;;13.20;99.90;;;;;;5024699;28;20073;-84
2022/05/24 06:08:26;;;;;;;13.00;6.60;;;13.20;99.90;;;;;;5023530;28;20037;-83
2022/05/24 06:10:53;;;;;;;7.03;5.43;;;13.30;99.90;;;;;;5023724;28;20073;-84
2022/05/24 06:13:19;;;;;;;8.70;5.93;;;13.20;99.90;;;;;;5023072;28;20057;-85
2022/05/24 06:15:48;;;;;;;9.52;4.95;;;13.20;99.90;;;;;;5022861;28;20053;-85
2022/05/24 06:18:14;;;;;;;8.32;5.40;;;13.30;99.90;;;;;;5024054;28;20106;-86
2022/05/24 06:20:40;;;;;;;6.35;4.68;;;13.20;99.90;;;;;;5023596;28;20050;-85
2022/05/24 06:23:06;;;;;;;10.85;3.72;;;13.30;99.90;;;;;;5022864;28;20381;-86
2022/05/24 06:25:31;;;;;;;3.00;2.42;;;13.20;99.90;;;;;;5023148;28;20175;-85
2022/05/24 06:27:59;;;;;;;4.47;2.53;;;13.30;99.90;;;;;;5005671;28;20140;-85
2022/05/24 06:30:25;;;;;;;5.03;2.90;;;13.30;99.90;;;;;;5022576;28;20044;-85
2022/05/24 06:32:51;;;;;;;3.78;2.78;;;13.30;99.90;;;;;;5006705;28;20103;-85
2022/05/24 06:35:20;;;;;;;2.92;2.67;;;13.30;99.90;;;;;;5022404;28;20052;-86
2022/05/24 06:37:48;;;;;;;8.43;3.20;;;13.30;99.90;;;;;;5023108;28;20403;-86
2022/05/24 06:40:16;;;;;;;3.40;2.80;;;13.30;99.90;;;;;;5024142;28;20076;-88
2022/05/24 06:42:42;;;;;;;4.80;3.97;;;13.30;99.90;;;;;;5023069;28;20034;-87
2022/05/24 06:45:11;;;;;;;5.15;3.38;;;13.30;99.90;;;;;;5023765;28;20103;-86
2022/05/24 06:47:37;;;;;;;3.17;2.47;;;13.30;99.90;;;;;;5007805;28;20185;-87
2022/05/24 06:50:04;;;;;;;8.10;3.47;;;13.40;99.90;;;;;;5003815;28;20077;-87
2022/05/24 06:52:30;;;;;;;4.57;3.75;;;13.40;99.90;;;;;;5005046;28;20431;-86
2022/05/24 06:54:55;;;;;;;7.45;4.43;;;13.40;99.90;;;;;;4986120;28;20042;-86
2022/05/24 06:57:21;;;;;;;5.00;3.60;;;13.40;99.90;;;;;;5004177;28;20046;-86
2022/05/24 07:02:35;;;;;;;12.35;4.70;;;13.40;99.90;;;;;;5004322;28;20451;-86
2022/05/24 07:05:13;;;;;;;5.57;4.28;;;13.40;99.90;;;;;;5011658;28;20041;-88
2022/05/24 07:07:40;;;;;;;9.90;4.28;;;13.40;99.90;;;;;;5013582;28;20095;-87
2022/05/24 07:10:09;;;;;;;6.85;4.40;;;13.40;99.90;;;;;;5011911;28;20200;-87
2022/05/24 07:12:38;;;;;;;4.35;3.50;;;13.40;99.90;;;;;;4992624;28;20056;-86
2022/05/24 07:15:22;;;;;;;8.00;4.60;;;13.40;99.90;;;;;;5011185;28;20053;-87
2022/05/24 07:17:51;;;;;;;7.30;4.22;;;13.40;99.90;;;;;;5010416;28;20034;-87
2022/05/24 07:20:30;;;;;;;8.52;4.72;;;13.40;99.90;;;;;;5011204;28;20491;-86
2022/05/24 07:23:09;;;;;;;11.07;5.13;;;13.40;99.90;;;;;;5015868;28;20041;-87
2022/05/24 07:25:41;;;;;;;13.55;5.53;;;13.40;99.90;;;;;;5011233;28;20403;-87
2022/05/24 07:28:11;;;;;;;6.37;5.00;;;13.40;99.90;;;;;;4975453;28;20172;-86
2022/05/24 07:30:42;;;;;;;6.68;4.75;;;13.40;99.90;;;;;;5008438;28;20556;-87
2022/05/24 07:33:09;;;;;;;6.00;4.85;;;13.40;99.90;;;;;;5002841;28;20284;-87
2022/05/24 07:35:41;;;;;;;7.25;4.50;;;13.50;99.90;;;;;;4991442;28;20053;-86
2022/05/24 07:38:08;;;;;;;4.15;3.72;;;13.50;99.90;;;;;;5009585;28;20046;-87
2022/05/24 07:46:23;;;;;;;8.13;4.75;;;13.50;99.90;;;;;;4975942;28;20058;-87
2022/05/24 07:48:48;;;;;;;6.78;3.50;;;13.60;99.90;;;;;;4913338;28;20087;-85
2022/05/24 07:51:14;;;;;;;6.82;4.25;;;13.60;99.90;;;;;;4963407;28;20515;-85
2022/05/24 07:53:39;;;;;;;6.53;5.05;;;13.60;99.90;;;;;;4983950;28;20050;-86
2022/05/24 07:56:05;;;;;;;5.35;3.35;;;13.60;99.90;;;;;;4984338;28;20144;-86
2022/05/24 07:58:31;;;;;;;10.02;3.03;;;13.60;99.90;;;;;;4985430;28;20144;-86
2022/05/24 08:00:58;;;;;;;4.20;3.42;;;13.60;99.90;;;;;;4986240;28;20045;-86
2022/05/24 08:03:26;;;;;;;2.92;2.65;;;13.60;99.90;;;;;;5001371;28;20048;-86
2022/05/24 08:05:51;;;;;;;4.25;3.30;;;13.60;99.90;;;;;;5003214;28;20052;-87
2022/05/24 08:08:20;;;;;;;4.57;2.60;;;13.60;99.90;;;;;;4985278;28;20045;-87
2022/05/24 08:10:46;;;;;;;3.22;3.03;;;13.60;99.90;;;;;;5003143;28;20615;-88
2022/05/24 08:13:14;;;;;;;3.10;2.80;;;13.60;99.90;;;;;;5001017;28;20125;-85
2022/05/24 08:15:40;;;;;;;2.78;2.58;;;13.60;99.90;;;;;;4985610;28;20034;-86
2022/05/24 08:18:06;;;;;;;4.90;2.90;;;13.60;99.90;;;;;;5002758;28;20123;-86
2022/05/24 08:20:33;;;;;;;7.53;2.92;;;13.60;99.90;;;;;;5003123;28;20042;-87
2022/05/24 08:22:59;;;;;;;5.38;3.03;;;13.60;99.90;;;;;;5003316;28;20404;-87
2022/05/24 08:25:26;;;;;;;3.45;2.92;;;13.70;99.90;;;;;;5001681;28;20057;-87
2022/05/24 08:27:52;;;;;;;10.95;5.07;;;13.60;99.90;;;;;;5002108;28;20050;-87
2022/05/24 08:30:18;;;;;;;5.43;3.90;;;13.60;99.90;;;;;;5014226;28;20385;-86
2022/05/24 08:32:44;;;;;;;3.42;2.72;;;13.60;99.90;;;;;;5021856;28;20792;-84
2022/05/24 08:35:13;;;;;;;4.25;3.20;;;13.60;99.90;;;;;;5022628;28;20050;-85
2022/05/24 08:37:40;;;;;;;3.70;2.85;;;13.60;99.90;;;;;;5025448;28;20047;-85
2022/05/24 08:40:07;;;;;;;14.70;4.18;;;13.50;99.90;;;;;;5021481;28;20046;-86
2022/05/24 08:42:40;;;;;;;3.42;3.00;;;13.50;99.90;;;;;;5007412;28;20041;-84
2022/05/24 08:48:22;;;;;;;4.53;3.35;;;13.40;99.90;;;;;;5023148;28;20053;-86
2022/05/24 08:50:51;;;;;;;4.03;3.72;;;13.40;99.90;;;;;;5001006;28;20117;-86
2022/05/24 08:53:30;;;;;;;5.85;4.05;;;13.30;99.90;;;;;;4989244;28;20050;-86
2022/05/24 08:55:56;;;;;;;4.82;4.25;;;13.30;99.90;;;;;;5009983;28;20080;-86
2022/05/24 08:58:30;;;;;;;5.70;5.20;;;13.30;99.90;;;;;;5001299;28;20072;-85
2022/05/24 09:00:57;;;;;;;7.18;4.25;;;13.30;99.90;;;;;;5025657;28;20052;-85
2022/05/24 09:03:25;;;;;;;5.82;4.63;;;13.30;99.90;;;;;;5024303;28;20045;-86
2022/05/24 09:06:19;;;;;;;5.35;4.88;;;13.40;99.90;;;;;;5008542;28;20050;-86
2022/05/24 09:09:14;;;;;;;5.03;4.57;;;13.40;99.90;;;;;;5024481;28;20050;-86
2022/05/24 09:12:07;;;;;;;8.07;4.93;;;13.40;99.90;;;;;;5016191;28;20041;-85
2022/05/24 09:15:01;;;;;;;4.50;4.10;;;13.30;99.90;;;;;;5000847;28;20129;-86
2022/05/24 09:17:48;;;;;;;6.80;4.15;;;13.30;99.90;;;;;;5015661;28;20053;-86
2022/05/24 09:20:29;;;;;;;5.68;4.43;;;13.40;99.90;;;;;;5026020;28;20087;-86
2022/05/24 09:23:03;;;;;;;5.05;4.50;;;13.40;99.90;;;;;;5004060;28;20479;-85
2022/05/24 09:25:28;;;;;;;4.37;4.07;;;13.40;99.90;;;;;;5014175;28;20053;-86
2022/05/24 09:27:55;;;;;;;5.88;4.20;;;13.50;99.90;;;;;;5010898;28;20050;-85
2022/05/24 09:30:29;;;;;;;8.10;4.10;;;13.50;99.90;;;;;;5016976;28;20809;-85
2022/05/24 09:33:23;;;;;;;4.68;3.92;;;13.60;99.90;;;;;;5015777;28;20046;-86
2022/05/24 09:35:52;;;;;;;4.57;3.50;;;13.60;99.90;;;;;;5018420;28;20038;-86
2022/05/24 09:38:22;;;;;;;7.22;4.05;;;13.60;99.90;;;;;;5015643;28;20050;-87
2022/05/24 09:40:59;;;;;;;7.65;3.83;;;13.70;99.90;;;;;;5013005;28;20050;-86
2022/05/24 09:43:29;;;;;;;3.72;3.40;;;13.70;99.90;;;;;;5015424;28;20622;-87
2022/05/24 09:46:06;;;;;;;5.30;4.63;;;13.70;99.90;;;;;;5006372;28;20064;-87
2022/05/24 09:48:35;;;;;;;8.10;3.00;;;13.70;99.90;;;;;;4996625;28;20092;-81
2022/05/24 09:51:03;;;;;;;2.65;2.45;;;13.70;99.90;;;;;;5012109;28;20050;-84
2022/05/24 09:53:31;;;;;;;4.40;2.03;;;13.70;99.90;;;;;;5005088;28;20046;-85
2022/05/24 09:56:17;;;;;;;1.98;1.88;;;13.70;99.90;;;;;;5005920;28;20184;-83
2022/05/24 09:58:58;;;;;;;1.25;1.20;;;13.60;99.90;;;;;;4986948;28;20046;-82
2022/05/24 10:01:43;;;;;;;1.40;1.30;;;13.60;99.90;;;;;;5022987;28;20381;-82
2022/05/24 10:04:18;;;;;;;1.27;1.17;;;13.50;99.90;;;;;;5024974;28;20098;-82
2022/05/24 10:06:54;;;;;;;1.40;1.25;;;13.50;99.90;;;;;;5023399;28;20045;-82
2022/05/24 10:09:19;;;;;;;1.90;1.80;;;13.60;99.90;;;;;;5023439;28;20049;-82
2022/05/24 10:12:04;;;;;;;2.65;2.33;;;13.60;99.90;;;;;;5025004;28;20092;-82
2022/05/24 10:14:51;;;;;;;5.40;2.17;;;13.60;99.90;;;;;;5024159;28;20045;-82
2022/05/24 10:17:40;;;;;;;2.88;1.75;;;13.60;99.90;;;;;;5024585;28;20046;-83
2022/05/24 10:20:46;;;;;;;3.88;3.47;;;13.70;99.90;;;;;;5023472;28;20129;-81
2022/05/24 10:23:49;;;;;;;3.80;3.40;;;13.70;99.90;;;;;;5017434;28;20133;-93
2022/05/24 10:26:39;;;;;;;3.80;3.45;;;13.80;99.90;;;;;;5029382;28;20037;-90
2022/05/24 10:29:08;;;;;;;7.40;4.22;;;13.90;99.90;;;;;;5023857;28;20034;-86
2022/05/24 10:31:56;;;;;;;3.13;2.83;;;13.80;99.90;;;;;;5016006;28;20053;-87
2022/05/24 10:40:38;;;;;;;0.30;0.30;;;13.60;99.90;;;;;;5024821;28;20673;-88
2022/05/24 10:43:31;;;;;;;0.32;0.30;;;13.50;99.90;;;;;;5023550;28;20450;-88
2022/05/24 10:46:03;;;;;;;0.57;0.57;;;13.50;99.90;;;;;;5023492;28;20073;-88
2022/05/24 10:48:48;;;;;;;0.55;0.52;;;13.50;99.90;;;;;;4988301;28;20459;-88
2022/05/24 10:51:27;;;;;;;3.05;1.20;;;13.60;99.90;;;;;;5004338;28;20484;-89
2022/05/24 10:53:58;;;;;;;3.45;1.08;;;13.60;99.90;;;;;;5004858;28;20038;-89
2022/05/24 10:56:43;;;;;;;0.85;0.85;;;13.70;99.90;;;;;;5004693;28;20053;-89
2022/05/24 10:59:45;;;;;;;1.45;1.27;;;13.70;99.90;;;;;;5008852;28;20049;-88
2022/05/24 11:02:33;;;;;;;6.70;1.98;;;13.70;99.90;;;;;;4981769;28;20061;-89
2022/05/24 11:05:12;;;;;;;2.60;1.35;;;13.70;99.90;;;;;;5023366;28;20049;-88
2022/05/24 11:07:38;;;;;;;0.60;0.60;;;13.70;99.90;;;;;;5023931;28;20052;-88
2022/05/24 11:10:31;;;;;;;0.63;0.63;;;13.70;99.90;;;;;;5023600;28;20049;-91
2022/05/24 11:13:03;;;;;;;1.35;1.08;;;13.70;99.90;;;;;;5023791;28;20156;-91
2022/05/24 11:15:36;;;;;;;0.30;0.30;;;13.60;99.90;;;;;;5024855;28;20045;-91
2022/05/24 11:18:16;;;;;;;3.88;1.10;;;13.60;99.90;;;;;;5007190;28;20041;-90
2022/05/24 11:21:00;;;;;;;2.20;0.98;;;13.50;99.90;;;;;;5024464;28;20046;-91
2022/05/24 11:23:29;;;;;;;3.30;1.50;;;13.50;99.90;;;;;;5024345;28;20052;-93
2022/05/24 11:26:15;;;;;;;8.27;1.73;;;13.60;99.90;;;;;;5025574;28;20076;-91
2022/05/24 11:28:50;;;;;;;1.00;1.00;;;13.60;99.90;;;;;;5023843;28;20304;-91
2022/05/24 11:31:46;;;;;;;1.02;1.02;;;13.60;99.90;;;;;;5023969;28;20046;-90
2022/05/24 11:34:27;;;;;;;3.33;1.55;;;13.70;99.90;;;;;;5024255;28;20057;-88
2022/05/24 11:37:14;;;;;;;2.50;1.67;;;13.70;99.90;;;;;;5006396;28;20038;-88
2022/05/24 11:39:44;;;;;;;0.60;0.60;;;13.70;99.90;;;;;;5003733;28;20056;-88
2022/05/24 11:42:22;;;;;;;1.08;0.45;;;13.70;99.90;;;;;;5002117;28;20042;-88
2022/05/24 11:44:52;;;;;;;0.68;0.60;;;13.70;99.90;;;;;;5003510;28;20076;-87
2022/05/24 11:47:39;;;;;;;4.88;1.00;;;13.70;99.90;;;;;;5013847;28;20535;-89
2022/05/24 11:50:07;;;;;;;13.32;1.42;;;13.70;99.90;;;;;;5021882;28;20096;-89
2022/05/24 11:53:02;;;;;;;4.38;1.40;;;13.70;99.90;;;;;;5022649;28;20048;-87
2022/05/24 11:55:46;;;;;;;1.77;1.50;;;13.60;99.90;;;;;;5021893;28;20049;-81
2022/05/24 11:58:21;;;;;;;2.03;1.10;;;13.60;99.90;;;;;;5020579;28;20049;-87
2022/05/24 12:01:31;;;;;;;1.85;1.30;;;13.60;99.90;;;;;;5002687;28;20392;-87
2022/05/24 12:10:11;;;;;;;2.15;1.25;;;13.80;99.90;;;;;;5022347;28;20041;-87
2022/05/24 12:12:46;;;;;;;1.20;0.90;;;13.80;99.90;;;;;;5023498;28;20049;-87
2022/05/24 12:15:22;;;;;;;0.75;0.60;;;13.90;99.90;;;;;;5022812;28;20038;-87
2022/05/24 12:18:00;;;;;;;1.83;0.70;;;13.90;99.90;;;;;;5026826;28;20084;-86
2022/05/24 12:20:34;;;;;;;0.90;0.90;;;14.00;99.90;;;;;;5025912;28;20052;-85
2022/05/24 12:23:06;;;;;;;1.33;0.98;;;14.10;99.90;;;;;;5009702;28;20059;-85
2022/05/24 12:26:01;;;;;;;3.95;0.82;;;14.20;99.90;;;;;;5026187;28;20503;-84
2022/05/24 12:28:50;;;;;;;1.08;0.93;;;14.20;99.90;;;;;;5013607;28;20080;-83
2022/05/24 12:31:29;;;;;;;0.68;0.68;;;14.30;99.90;;;;;;5027042;28;20042;-84
2022/05/24 12:33:55;;;;;;;3.83;1.02;;;14.30;99.90;;;;;;5025430;28;20068;-85
2022/05/24 12:36:29;;;;;;;7.57;1.45;;;14.30;99.90;;;;;;5025200;28;20286;-84
2022/05/24 12:39:11;;;;;;;1.88;1.45;;;14.40;99.90;;;;;;5025682;28;20041;-83
2022/05/24 12:41:46;;;;;;;3.08;1.00;;;14.40;99.90;;;;;;5024542;28;20084;-84
2022/05/24 12:44:28;;;;;;;2.65;1.10;;;14.50;99.90;;;;;;5026616;28;20096;-83
2022/05/24 12:46:57;;;;;;;4.97;1.15;;;14.50;99.90;;;;;;5000069;28;20591;-85
2022/05/24 12:49:29;;;;;;;1.98;1.20;;;14.50;99.90;;;;;;5024718;28;20077;-84
2022/05/24 12:52:05;;;;;;;2.70;0.90;;;14.60;99.90;;;;;;5026231;28;20069;-80
2022/05/24 12:54:40;;;;;;;1.17;0.75;;;14.60;99.90;;;;;;5024966;28;20045;-84
2022/05/24 12:57:28;;;;;;;0.90;0.90;;;14.60;99.90;;;;;;5024233;28;20088;-84
2022/05/24 12:59:55;;;;;;;10.13;1.65;;;14.70;99.90;;;;;;5010480;28;20040;-84
2022/05/24 13:02:25;;;;;;;3.55;1.40;;;14.70;99.90;;;;;;5025717;28;20523;-84
2022/05/24 13:04:51;;;;;;;0.60;0.60;;;14.60;99.90;;;;;;5025839;28;20108;-85
2022/05/24 13:07:54;;;;;;;0.88;0.70;;;14.70;99.90;;;;;;5024574;28;20544;-84
2022/05/24 13:10:23;;;;;;;5.63;1.65;;;14.60;99.90;;;;;;5006257;28;20038;-84
2022/05/24 13:12:56;;;;;;;1.00;1.00;;;14.70;99.90;;;;;;5013326;28;20535;-85
2022/05/24 13:15:49;;;;;;;1.13;0.63;;;14.70;99.90;;;;;;5025946;28;20084;-84
2022/05/24 13:18:46;;;;;;;1.33;1.05;;;14.70;99.90;;;;;;5024230;28;20041;-84
2022/05/24 13:21:21;;;;;;;1.70;1.27;;;14.70;99.90;;;;;;5025876;28;20041;-83
2022/05/24 13:23:46;;;;;;;1.50;1.40;;;14.70;99.90;;;;;;5023339;28;20041;-83
2022/05/24 13:26:17;;;;;;;2.38;1.20;;;14.70;99.90;;;;;;5025335;28;20076;-84
2022/05/24 13:28:56;;;;;;;3.40;0.93;;;14.70;99.90;;;;;;5024686;28;20041;-84
2022/05/24 13:34:17;;;;;;;1.70;1.55;;;14.80;99.90;;;;;;5023796;28;20053;-83
2022/05/24 13:36:46;;;;;;;2.22;2.03;;;14.70;99.90;;;;;;5024199;28;20496;-90
2022/05/24 13:39:19;;;;;;;1.48;1.35;;;14.70;99.90;;;;;;5006271;28;20044;-89
2022/05/24 13:41:55;;;;;;;1.15;1.15;;;14.60;99.90;;;;;;5023455;28;20512;-86
2022/05/24 13:44:32;;;;;;;3.47;1.20;;;14.60;99.90;;;;;;5012727;28;20487;-86
2022/05/24 13:47:08;;;;;;;3.30;0.80;;;14.60;99.90;;;;;;5015383;28;20048;-90